Search for airport 
image banner adimage banner adimage banner ad
image banner ad

76PN - Mcbc

Located in Beaver, United States

ICAO - 76PN, IATA -

Data provided by Airmate  

General information

Coordinates: N40°42'41" W80°19'19"
Elevation is 1132 feet MSL.
Magnetic variation is -07° East
View others Airports in Pennsylvania

Operational data

Special qualification required
Current time UTC:
Current local time:
Weather at : KBVI - Beaver County ( 9 km )
METAR: KBVI 091415Z AUTO 10005KT 4SM -RA BKN009 BKN015 OVC039 04/03 A2998 RMK AO2 T00370027
TAF: KBVI 091120Z 0912/1012 16005KT P6SM -RA OVC040 FM091400 12008KT 4SM -RA OVC030 FM091600 09008KT 3SM RA OVC007 FM092200 36007KT 4SM -SHRA OVC007 FM100400 35005KT 4SM BR OVC003 FM101000 32005KT P6SM BKN010
View NOTAMs / SUP AIP / TFR affecting this airport [VIEW]
Communications frequencies: [VIEW]

Runways:

Airport contact information

Address: Beaver United States

Satellite view of 76PN